Time;durP1;ratioP1;P1;durP2;ratioP2;P2;SDS_P1;SDS_P2;PMS_P1;PMS_P2;Temp;Humidity;BMP_temperature;BMP_pressure;BME280_temperature;BME280_humidity;BME280_pressure;Samples;Min_cycle;Max_cycle;Signal;HPM_P1;HPM_P2
2022/04/03 00:01:56;;;;;;;2.47;2.03;;;5.00;87.50;;;;;;4970416;28;20205;-75
2022/04/03 00:04:26;;;;;;;3.77;2.67;;;4.80;87.80;;;;;;4969624;28;20190;-75
2022/04/03 00:06:54;;;;;;;3.30;2.70;;;5.00;88.00;;;;;;4976459;28;20227;-75
2022/04/03 00:09:22;;;;;;;4.10;3.00;;;4.90;87.30;;;;;;4971822;28;20217;-75
2022/04/03 00:11:50;;;;;;;4.87;2.87;;;4.80;87.50;;;;;;4956624;28;20207;-75
2022/04/03 00:14:17;;;;;;;3.43;2.90;;;4.70;88.10;;;;;;4968968;28;20206;-75
2022/04/03 00:16:44;;;;;;;5.27;2.90;;;4.80;88.50;;;;;;4954366;28;20218;-75
2022/04/03 00:19:12;;;;;;;3.70;2.87;;;4.70;88.60;;;;;;4968258;28;20215;-75
2022/04/03 00:21:40;;;;;;;4.07;2.73;;;4.70;88.60;;;;;;4972789;28;20214;-75
2022/04/03 00:24:08;;;;;;;3.07;2.77;;;4.80;89.20;;;;;;4973762;28;20191;-75
2022/04/03 00:26:36;;;;;;;4.53;3.00;;;4.80;88.80;;;;;;4972702;28;20224;-75
2022/04/03 00:29:04;;;;;;;5.70;2.90;;;4.80;89.00;;;;;;4972106;28;20194;-75
2022/04/03 00:31:36;;;;;;;3.17;2.60;;;4.80;88.90;;;;;;4985059;28;20204;-75
2022/04/03 00:34:04;;;;;;;2.97;2.60;;;4.70;89.40;;;;;;4966650;28;20221;-75
2022/04/03 00:36:31;;;;;;;3.10;2.37;;;4.80;89.80;;;;;;4962082;28;20227;-75
2022/04/03 00:39:00;;;;;;;3.03;2.53;;;4.90;89.20;;;;;;4971932;28;20226;-75
2022/04/03 00:41:27;;;;;;;5.17;3.30;;;4.60;90.00;;;;;;4973304;28;20201;-75
2022/04/03 00:43:56;;;;;;;3.43;3.13;;;4.60;89.50;;;;;;4964999;28;20664;-74
2022/04/03 00:46:28;;;;;;;4.20;3.00;;;4.60;90.10;;;;;;4986169;28;20227;-75
2022/04/03 00:48:59;;;;;;;4.87;2.77;;;4.80;89.90;;;;;;4971911;28;20193;-75
2022/04/03 00:51:30;;;;;;;5.33;3.37;;;4.80;89.80;;;;;;4973426;28;20214;-75
2022/04/03 00:53:57;;;;;;;2.97;2.67;;;4.70;89.20;;;;;;4970633;28;20211;-75
2022/04/03 00:56:26;;;;;;;3.50;3.20;;;4.70;90.00;;;;;;4970104;28;20289;-75
2022/04/03 00:58:54;;;;;;;3.13;2.83;;;4.60;90.00;;;;;;4968258;28;20560;-75
2022/04/03 01:01:21;;;;;;;4.17;2.70;;;4.70;89.50;;;;;;4989679;28;20584;-76
2022/04/03 01:03:48;;;;;;;3.93;3.27;;;4.60;90.10;;;;;;4971098;28;20198;-75
2022/04/03 01:06:16;;;;;;;3.80;2.90;;;4.50;90.50;;;;;;4990284;28;20237;-76
2022/04/03 01:08:44;;;;;;;3.10;2.70;;;4.50;90.50;;;;;;4981290;28;20210;-75
2022/04/03 01:11:13;;;;;;;7.20;3.27;;;4.40;90.20;;;;;;4974426;28;20210;-75
2022/04/03 01:13:47;;;;;;;3.00;2.70;;;4.40;90.70;;;;;;4959983;28;20275;-75
2022/04/03 01:16:15;;;;;;;3.20;2.90;;;4.40;90.70;;;;;;4971048;28;20590;-76
2022/04/03 01:18:42;;;;;;;5.90;2.93;;;4.30;90.90;;;;;;4974361;28;20210;-75
2022/04/03 01:21:10;;;;;;;3.37;2.37;;;4.50;90.70;;;;;;4966446;28;20228;-75
2022/04/03 01:23:37;;;;;;;4.60;2.90;;;4.50;90.90;;;;;;4976085;28;20197;-75
2022/04/03 01:26:06;;;;;;;3.60;2.90;;;4.50;90.80;;;;;;4988751;28;20222;-76
2022/04/03 01:28:33;;;;;;;3.17;2.87;;;4.40;90.90;;;;;;4972945;28;20200;-75
2022/04/03 01:31:00;;;;;;;4.50;2.60;;;4.40;91.10;;;;;;4966623;28;20680;-76
2022/04/03 01:33:28;;;;;;;3.77;2.80;;;4.30;91.20;;;;;;4970910;28;20198;-75
2022/04/03 01:35:55;;;;;;;4.37;3.27;;;4.40;91.30;;;;;;4968756;28;20241;-75
2022/04/03 01:38:23;;;;;;;3.17;2.93;;;4.50;90.90;;;;;;4984419;28;20587;-76
2022/04/03 01:40:50;;;;;;;3.67;2.60;;;4.60;90.80;;;;;;4964709;28;20216;-75
2022/04/03 01:43:19;;;;;;;3.27;2.63;;;4.50;91.30;;;;;;4968633;28;20198;-75
2022/04/03 01:45:46;;;;;;;3.27;2.77;;;4.60;91.20;;;;;;4968981;28;20217;-75
2022/04/03 01:48:14;;;;;;;3.33;2.50;;;4.60;90.90;;;;;;4973664;28;20600;-75
2022/04/03 01:50:41;;;;;;;4.83;3.20;;;4.50;90.80;;;;;;4971825;28;20203;-75
2022/04/03 01:53:08;;;;;;;4.90;3.30;;;4.50;90.50;;;;;;4960678;28;20227;-75
2022/04/03 01:55:36;;;;;;;3.17;2.87;;;4.40;91.10;;;;;;4969146;28;20205;-75
2022/04/03 01:58:08;;;;;;;3.67;3.33;;;4.30;91.20;;;;;;4983691;28;20217;-75
2022/04/03 02:00:37;;;;;;;4.00;2.93;;;4.40;91.30;;;;;;4966215;28;20718;-75
2022/04/03 02:03:05;;;;;;;3.30;2.93;;;4.30;91.50;;;;;;4970933;28;20197;-75
2022/04/03 02:05:32;;;;;;;3.90;3.03;;;4.20;91.50;;;;;;4969548;28;20198;-75
2022/04/03 02:08:00;;;;;;;5.00;3.10;;;4.20;91.60;;;;;;4968865;28;20205;-76
2022/04/03 02:10:27;;;;;;;3.53;2.83;;;4.20;91.50;;;;;;4970009;28;20210;-76
2022/04/03 02:12:54;;;;;;;3.47;3.07;;;4.10;91.90;;;;;;4985475;28;20202;-75
2022/04/03 02:15:23;;;;;;;2.97;2.57;;;4.20;91.90;;;;;;4989075;28;20584;-75
2022/04/03 02:17:51;;;;;;;4.93;3.20;;;4.30;92.00;;;;;;4970409;28;20209;-75
2022/04/03 02:20:19;;;;;;;6.77;2.93;;;4.40;91.70;;;;;;4973630;28;20209;-75
2022/04/03 02:23:33;;;;;;;4.67;2.93;;;4.30;91.80;;;;;;4990539;28;20197;-75
2022/04/03 02:26:01;;;;;;;3.80;2.93;;;4.10;92.10;;;;;;4975107;28;20235;-75
2022/04/03 02:28:30;;;;;;;3.80;3.40;;;3.90;92.50;;;;;;4985830;28;20215;-75
2022/04/03 02:30:58;;;;;;;3.30;2.37;;;3.90;92.70;;;;;;4955946;28;20201;-75
2022/04/03 02:33:27;;;;;;;4.47;3.10;;;3.80;93.20;;;;;;4970363;28;20201;-75
2022/04/03 02:35:54;;;;;;;3.73;2.70;;;3.70;93.70;;;;;;4960950;28;20236;-75
2022/04/03 02:38:22;;;;;;;5.80;3.07;;;3.60;94.70;;;;;;4972211;28;20215;-75
2022/04/03 02:40:50;;;;;;;4.43;2.90;;;3.60;94.90;;;;;;4967744;28;20570;-75
2022/04/03 02:43:17;;;;;;;3.37;2.67;;;3.50;95.40;;;;;;4988260;28;20582;-75
2022/04/03 02:45:45;;;;;;;6.70;3.30;;;3.50;95.80;;;;;;4964181;28;20233;-75
2022/04/03 02:48:12;;;;;;;4.40;2.83;;;3.60;96.30;;;;;;4983214;28;20212;-75
2022/04/03 02:50:41;;;;;;;4.40;3.00;;;3.50;96.90;;;;;;4970778;28;20208;-75
2022/04/03 02:53:08;;;;;;;4.97;3.63;;;3.30;96.80;;;;;;4973362;28;20209;-75
2022/04/03 02:55:36;;;;;;;7.40;3.43;;;3.20;97.60;;;;;;4971943;28;20215;-75
2022/04/03 02:58:04;;;;;;;3.90;3.10;;;3.40;97.30;;;;;;4962867;28;20209;-75
2022/04/03 03:00:33;;;;;;;5.73;3.30;;;3.30;96.50;;;;;;4972064;28;20247;-75
2022/04/03 03:03:02;;;;;;;3.87;3.00;;;3.30;96.80;;;;;;4971987;28;20212;-75
2022/04/03 03:05:29;;;;;;;3.73;2.97;;;3.40;97.10;;;;;;4970516;28;20219;-76
2022/04/03 03:07:58;;;;;;;5.80;3.03;;;3.20;97.70;;;;;;4970890;28;20566;-75
2022/04/03 03:10:25;;;;;;;3.93;3.37;;;3.10;98.30;;;;;;4967690;28;20571;-75
2022/04/03 03:12:53;;;;;;;3.07;2.77;;;3.20;99.90;;;;;;4964610;28;20201;-75
2022/04/03 03:15:21;;;;;;;4.13;2.80;;;3.00;99.90;;;;;;4985182;28;20209;-75
2022/04/03 03:17:49;;;;;;;3.70;3.20;;;3.10;99.90;;;;;;4976632;28;20234;-75
2022/04/03 03:20:16;;;;;;;4.47;3.40;;;3.00;99.80;;;;;;4971008;28;20231;-75
2022/04/03 03:22:45;;;;;;;5.20;3.07;;;2.80;99.60;;;;;;4968463;28;20196;-76
2022/04/03 03:25:16;;;;;;;4.47;2.87;;;2.80;99.90;;;;;;4979566;28;20216;-75
2022/04/03 03:27:43;;;;;;;3.43;3.13;;;2.90;99.90;;;;;;4972062;28;20587;-75
2022/04/03 03:30:12;;;;;;;3.73;3.07;;;2.80;99.80;;;;;;4962662;28;20590;-75
2022/04/03 03:32:39;;;;;;;3.80;3.30;;;2.70;99.90;;;;;;4968331;28;20218;-75
2022/04/03 03:35:08;;;;;;;3.97;2.90;;;2.70;99.90;;;;;;4970240;28;20212;-75
2022/04/03 03:37:35;;;;;;;3.93;2.90;;;2.60;99.90;;;;;;4958162;28;20228;-75
2022/04/03 03:40:04;;;;;;;4.97;3.43;;;2.60;99.90;;;;;;4971921;28;20216;-75
2022/04/03 03:42:33;;;;;;;4.70;3.23;;;2.50;99.90;;;;;;4972000;28;20201;-75
2022/04/03 03:45:01;;;;;;;3.93;3.07;;;2.50;99.90;;;;;;4963812;28;20202;-75
2022/04/03 03:47:29;;;;;;;4.87;3.20;;;2.50;99.90;;;;;;4969719;28;20710;-75
2022/04/03 03:49:56;;;;;;;5.80;3.20;;;2.40;99.90;;;;;;4980992;28;20208;-75
2022/04/03 03:52:24;;;;;;;4.27;3.53;;;2.40;99.90;;;;;;4977579;28;20192;-75
2022/04/03 03:54:52;;;;;;;5.10;3.47;;;2.20;99.90;;;;;;4973104;28;20227;-75
2022/04/03 03:57:20;;;;;;;4.67;3.63;;;2.40;99.90;;;;;;4966280;28;20238;-75
2022/04/03 03:59:49;;;;;;;4.20;3.13;;;2.60;99.90;;;;;;4956431;28;20205;-75
2022/04/03 04:02:25;;;;;;;4.67;3.67;;;2.60;99.90;;;;;;4973405;28;20266;-73
2022/04/03 04:04:52;;;;;;;4.63;4.20;;;2.40;99.90;;;;;;4988226;28;20200;-73
2022/04/03 04:07:20;;;;;;;5.23;3.60;;;2.30;99.90;;;;;;4966298;28;20221;-73
2022/04/03 04:09:47;;;;;;;4.53;3.70;;;2.00;99.90;;;;;;4964595;28;20212;-73
2022/04/03 04:12:14;;;;;;;4.33;3.60;;;1.80;99.90;;;;;;4966054;28;20215;-73
2022/04/03 04:14:42;;;;;;;5.87;3.90;;;2.10;99.90;;;;;;4964700;28;20198;-73
2022/04/03 04:17:11;;;;;;;5.03;4.00;;;2.20;99.90;;;;;;4986178;28;20226;-74
2022/04/03 04:19:38;;;;;;;5.33;3.53;;;2.20;99.90;;;;;;4973431;28;20592;-73
2022/04/03 04:22:05;;;;;;;4.90;4.40;;;2.40;99.90;;;;;;4971711;28;20212;-73
2022/04/03 04:24:33;;;;;;;5.43;4.10;;;2.40;99.90;;;;;;4961379;28;20212;-73
2022/04/03 04:27:00;;;;;;;5.13;4.27;;;2.40;99.90;;;;;;4970975;28;20213;-73
2022/04/03 04:29:28;;;;;;;8.00;5.03;;;2.40;99.90;;;;;;4969973;28;20215;-73
2022/04/03 04:31:55;;;;;;;8.73;5.40;;;2.30;99.90;;;;;;4971376;28;20222;-73
2022/04/03 04:34:24;;;;;;;5.43;4.23;;;2.20;99.90;;;;;;4988811;28;20212;-73
2022/04/03 04:36:51;;;;;;;5.07;4.10;;;2.20;99.90;;;;;;4967550;28;20232;-73
2022/04/03 04:39:18;;;;;;;6.23;4.27;;;2.20;99.90;;;;;;4974247;28;20203;-73
2022/04/03 04:41:46;;;;;;;7.80;4.80;;;2.30;99.90;;;;;;4973112;28;20736;-73
2022/04/03 04:44:13;;;;;;;5.97;4.33;;;2.20;99.90;;;;;;4990747;28;20540;-73
2022/04/03 04:46:40;;;;;;;4.97;4.47;;;2.30;99.90;;;;;;4972230;28;20231;-73
2022/04/03 04:49:08;;;;;;;4.93;4.33;;;2.30;99.90;;;;;;4980044;28;20210;-73
2022/04/03 04:51:37;;;;;;;4.97;4.30;;;2.30;99.90;;;;;;4973244;28;20197;-74
2022/04/03 04:54:05;;;;;;;4.93;4.17;;;2.20;99.90;;;;;;4967466;28;20201;-73
2022/04/03 04:56:33;;;;;;;5.23;4.73;;;2.30;99.90;;;;;;4972461;28;20224;-73
2022/04/03 04:59:01;;;;;;;5.37;4.07;;;2.20;99.90;;;;;;4986853;28;20222;-73
2022/04/03 05:01:28;;;;;;;6.20;4.40;;;2.00;99.90;;;;;;4967760;28;20209;-73
2022/04/03 05:03:55;;;;;;;7.10;4.90;;;2.00;99.90;;;;;;4963100;28;20209;-74
2022/04/03 05:06:26;;;;;;;6.10;4.43;;;1.90;99.90;;;;;;4983544;28;20232;-73
2022/04/03 05:08:55;;;;;;;5.33;4.30;;;1.90;99.90;;;;;;4982645;28;20618;-73
2022/04/03 05:11:23;;;;;;;7.00;4.83;;;1.80;99.90;;;;;;4969174;28;20193;-73
2022/04/03 05:13:51;;;;;;;6.00;4.40;;;1.80;99.90;;;;;;4986899;28;20570;-73
2022/04/03 05:16:21;;;;;;;7.73;4.63;;;1.70;99.90;;;;;;4973536;28;20229;-73
2022/04/03 05:18:48;;;;;;;4.90;4.40;;;1.70;99.90;;;;;;4984317;28;20221;-73
2022/04/03 05:21:16;;;;;;;5.70;4.60;;;1.90;99.90;;;;;;4965945;28;20220;-73
2022/04/03 05:23:44;;;;;;;4.70;4.30;;;2.00;99.90;;;;;;4973664;28;20202;-73
2022/04/03 05:26:12;;;;;;;5.77;4.77;;;2.00;99.90;;;;;;4969887;28;20227;-73
2022/04/03 05:28:46;;;;;;;7.07;5.20;;;1.90;99.90;;;;;;4967145;28;20185;-73
2022/04/03 05:31:14;;;;;;;6.83;4.77;;;1.90;99.90;;;;;;4972324;28;20209;-74
2022/04/03 05:33:43;;;;;;;6.37;4.87;;;2.00;99.90;;;;;;4971277;28;20201;-74
2022/04/03 05:36:17;;;;;;;7.10;4.83;;;2.20;99.90;;;;;;4972963;28;20669;-74
2022/04/03 05:38:44;;;;;;;5.03;4.53;;;2.30;99.90;;;;;;4970236;28;20211;-73
2022/04/03 05:41:13;;;;;;;6.70;4.40;;;1.90;99.90;;;;;;4985124;28;20223;-73
2022/04/03 05:43:50;;;;;;;7.40;4.70;;;1.80;99.90;;;;;;4988367;28;20206;-73
2022/04/03 05:46:18;;;;;;;4.93;4.37;;;1.80;99.90;;;;;;4965931;28;20224;-75
2022/04/03 05:48:45;;;;;;;6.37;4.70;;;2.00;99.90;;;;;;4970666;28;20212;-77
2022/04/03 05:51:29;;;;;;;5.47;4.60;;;2.20;99.90;;;;;;4970710;28;20253;-72
2022/04/03 05:53:56;;;;;;;4.70;4.23;;;2.30;99.90;;;;;;4969569;28;20196;-73
2022/04/03 05:56:27;;;;;;;5.80;4.80;;;2.40;99.90;;;;;;4969018;28;20556;-73
2022/04/03 05:58:55;;;;;;;6.17;4.20;;;2.20;99.90;;;;;;4971049;28;20206;-73
2022/04/03 06:01:22;;;;;;;7.10;5.00;;;1.90;99.90;;;;;;4971816;28;20219;-74
2022/04/03 06:04:02;;;;;;;6.13;4.43;;;2.10;99.90;;;;;;4973111;28;20215;-73
2022/04/03 06:06:29;;;;;;;5.00;4.50;;;1.90;99.90;;;;;;4991968;28;20239;-73
2022/04/03 06:09:14;;;;;;;6.70;4.70;;;2.20;99.90;;;;;;4992401;28;20195;-73
2022/04/03 06:11:43;;;;;;;5.17;4.23;;;2.40;99.90;;;;;;4987975;28;20201;-73
2022/04/03 06:14:11;;;;;;;4.93;4.43;;;2.50;99.90;;;;;;4972251;28;20201;-73
2022/04/03 06:16:38;;;;;;;5.63;4.37;;;2.70;99.90;;;;;;4971099;28;20219;-72
2022/04/03 06:19:05;;;;;;;7.13;4.43;;;2.70;99.90;;;;;;4986340;28;20220;-74
2022/04/03 06:21:33;;;;;;;6.23;4.50;;;2.30;99.90;;;;;;4977969;28;20209;-74
2022/04/03 06:24:00;;;;;;;4.93;4.43;;;2.20;99.70;;;;;;4961361;28;20670;-74
2022/04/03 06:26:27;;;;;;;6.33;4.73;;;2.10;99.90;;;;;;4968986;28;20247;-74
2022/04/03 06:28:56;;;;;;;6.47;4.73;;;2.10;99.90;;;;;;4984044;28;20209;-74
2022/04/03 06:31:23;;;;;;;6.30;4.47;;;2.50;99.90;;;;;;4965613;28;20195;-73
2022/04/03 06:33:57;;;;;;;4.83;4.20;;;2.10;99.90;;;;;;4987198;28;20529;-74
2022/04/03 06:36:24;;;;;;;5.47;4.80;;;2.30;99.90;;;;;;4985962;28;20217;-72
2022/04/03 06:38:52;;;;;;;6.17;5.10;;;2.10;99.80;;;;;;4966377;28;20216;-73
2022/04/03 06:41:19;;;;;;;6.67;4.87;;;2.40;99.90;;;;;;4971595;28;20229;-74
2022/04/03 06:43:58;;;;;;;5.77;4.50;;;2.30;99.50;;;;;;4971705;28;20208;-73
2022/04/03 06:46:26;;;;;;;7.80;4.90;;;2.20;99.50;;;;;;4967589;28;20233;-73
2022/04/03 06:48:53;;;;;;;8.67;5.50;;;2.10;99.60;;;;;;4967007;28;20200;-75
2022/04/03 06:51:21;;;;;;;5.83;4.73;;;2.00;99.90;;;;;;4963929;28;20209;-76
2022/04/03 06:53:55;;;;;;;6.50;5.43;;;2.20;99.90;;;;;;4966985;28;20208;-77
2022/04/03 06:56:22;;;;;;;6.47;5.20;;;2.80;99.60;;;;;;4966245;28;20458;-71
2022/04/03 06:58:50;;;;;;;6.73;4.93;;;2.90;98.60;;;;;;4970474;28;20202;-72
2022/04/03 07:01:18;;;;;;;8.20;5.10;;;3.10;97.70;;;;;;4986243;28;20233;-72
2022/04/03 07:03:46;;;;;;;4.33;3.93;;;3.00;98.10;;;;;;4962143;28;20209;-73
2022/04/03 07:06:13;;;;;;;5.20;4.57;;;3.00;97.50;;;;;;4973966;28;20224;-73
2022/04/03 07:08:43;;;;;;;6.53;4.63;;;2.70;97.60;;;;;;4985664;28;20249;-73
2022/04/03 07:11:10;;;;;;;4.30;3.90;;;2.90;97.80;;;;;;4964634;28;20217;-73
2022/04/03 07:13:37;;;;;;;8.33;5.00;;;3.20;97.90;;;;;;4966580;28;20221;-73
2022/04/03 07:16:06;;;;;;;9.30;6.37;;;3.30;96.50;;;;;;4968775;28;20224;-73
2022/04/03 07:18:36;;;;;;;6.83;4.60;;;3.40;97.60;;;;;;4962731;28;20206;-73
2022/04/03 07:21:03;;;;;;;5.77;4.83;;;3.60;97.50;;;;;;4962636;28;20236;-73
2022/04/03 07:23:30;;;;;;;5.33;4.83;;;3.50;96.70;;;;;;4971513;28;20208;-73
2022/04/03 07:25:58;;;;;;;4.80;4.30;;;3.60;97.10;;;;;;4967162;28;20627;-73
2022/04/03 07:28:25;;;;;;;5.57;4.60;;;3.80;96.70;;;;;;4977049;28;20208;-73
2022/04/03 07:30:52;;;;;;;5.63;3.90;;;4.00;95.60;;;;;;4975593;28;20214;-73
2022/04/03 07:33:20;;;;;;;5.73;4.33;;;3.60;95.10;;;;;;4970037;28;20205;-73
2022/04/03 07:35:49;;;;;;;5.67;3.73;;;3.30;94.90;;;;;;4960693;28;20216;-73
2022/04/03 07:38:16;;;;;;;6.07;4.13;;;3.60;95.20;;;;;;4969984;28;20674;-73
2022/04/03 07:40:45;;;;;;;5.70;3.97;;;4.00;94.80;;;;;;4970340;28;20195;-73
2022/04/03 07:43:13;;;;;;;5.50;3.27;;;4.20;94.20;;;;;;4970124;28;20228;-73
2022/04/03 07:45:41;;;;;;;6.80;3.90;;;4.20;93.10;;;;;;4965167;28;20207;-73
2022/04/03 07:48:09;;;;;;;5.73;3.83;;;4.40;92.30;;;;;;4961070;28;20684;-73
2022/04/03 07:50:37;;;;;;;3.77;3.30;;;4.50;92.50;;;;;;4972779;28;20205;-73
2022/04/03 07:53:06;;;;;;;4.53;3.40;;;4.30;91.80;;;;;;4982070;28;20202;-73
2022/04/03 07:55:34;;;;;;;3.87;3.03;;;4.20;92.30;;;;;;4961773;28;20208;-73
2022/04/03 07:58:01;;;;;;;4.40;3.40;;;4.50;91.60;;;;;;4967245;28;20204;-73
2022/04/03 08:00:29;;;;;;;4.00;3.00;;;4.80;91.00;;;;;;4970162;28;20192;-73
2022/04/03 08:02:56;;;;;;;3.10;2.80;;;4.80;90.40;;;;;;4969000;28;20222;-73
2022/04/03 08:05:23;;;;;;;6.70;2.87;;;5.10;90.60;;;;;;4964364;28;20206;-73
2022/04/03 08:07:51;;;;;;;5.47;2.97;;;5.40;89.00;;;;;;4986170;28;20224;-73
2022/04/03 08:10:20;;;;;;;3.00;2.60;;;5.30;86.00;;;;;;4962256;28;20228;-73
2022/04/03 08:12:49;;;;;;;5.50;2.73;;;5.20;86.00;;;;;;4963071;28;20186;-73
2022/04/03 08:15:18;;;;;;;4.83;2.93;;;5.30;87.50;;;;;;4968139;28;20213;-73
2022/04/03 08:17:46;;;;;;;4.33;2.90;;;5.40;86.60;;;;;;4968307;28;20587;-73
2022/04/03 08:20:16;;;;;;;4.70;2.80;;;5.40;85.90;;;;;;4970596;28;20211;-73
2022/04/03 08:22:44;;;;;;;3.70;3.30;;;5.30;84.30;;;;;;4985440;28;20241;-73
2022/04/03 08:25:13;;;;;;;3.60;3.30;;;5.20;83.60;;;;;;4967803;28;20197;-73
2022/04/03 08:27:43;;;;;;;3.20;2.60;;;5.40;84.00;;;;;;4964302;28;20226;-73
2022/04/03 08:30:13;;;;;;;5.13;3.13;;;5.50;83.30;;;;;;4982212;28;20195;-73
2022/04/03 08:32:41;;;;;;;3.77;3.23;;;5.50;82.10;;;;;;4971346;28;20199;-73
2022/04/03 08:35:09;;;;;;;4.87;3.43;;;5.40;82.70;;;;;;4966031;28;20210;-73
2022/04/03 08:37:36;;;;;;;3.23;2.73;;;5.70;83.70;;;;;;4962250;28;20228;-73
2022/04/03 08:40:04;;;;;;;4.23;3.13;;;5.80;82.10;;;;;;4969670;28;20232;-73
2022/04/03 08:42:33;;;;;;;3.57;2.90;;;5.60;78.60;;;;;;4979459;28;20222;-73
2022/04/03 08:45:02;;;;;;;3.50;3.20;;;5.60;78.90;;;;;;4975557;28;20218;-73
2022/04/03 08:47:31;;;;;;;4.93;3.00;;;5.50;78.50;;;;;;4965968;28;20230;-73
2022/04/03 08:50:01;;;;;;;5.50;3.43;;;5.30;77.40;;;;;;4980849;28;20212;-73
2022/04/03 08:52:32;;;;;;;3.70;3.00;;;5.40;78.20;;;;;;4985110;28;20216;-72
2022/04/03 08:55:00;;;;;;;4.57;3.67;;;5.30;78.90;;;;;;4973493;28;20548;-74
2022/04/03 08:57:32;;;;;;;4.73;3.70;;;5.40;79.80;;;;;;4968198;28;20223;-73
2022/04/03 09:00:07;;;;;;;3.60;3.30;;;5.40;80.00;;;;;;4966723;28;20235;-73
2022/04/03 09:02:34;;;;;;;3.20;2.90;;;6.60;91.80;;;;;;4975343;28;20215;-72
2022/04/03 09:05:15;;;;;;;4.27;3.87;;;6.90;79.20;;;;;;4970061;28;20203;-72
2022/04/03 09:07:43;;;;;;;4.70;3.00;;;5.80;75.80;;;;;;4957397;28;20223;-73
2022/04/03 09:10:13;;;;;;;3.83;3.27;;;7.00;90.50;;;;;;4959900;28;20209;-73
2022/04/03 09:12:44;;;;;;;5.27;3.50;;;6.70;76.50;;;;;;4971894;28;20191;-72
2022/04/03 09:15:15;;;;;;;4.67;3.80;;;5.80;77.60;;;;;;4972872;28;20206;-72
2022/04/03 09:17:45;;;;;;;5.07;3.30;;;5.60;80.10;;;;;;4983479;28;20223;-72
2022/04/03 09:20:26;;;;;;;3.10;2.80;;;5.70;80.10;;;;;;4974888;28;20199;-72
2022/04/03 09:22:55;;;;;;;3.60;2.93;;;5.70;80.30;;;;;;4969802;28;20222;-72
2022/04/03 09:25:27;;;;;;;2.57;2.37;;;5.30;79.40;;;;;;4974958;28;20213;-72
2022/04/03 09:27:56;;;;;;;3.47;2.23;;;5.20;80.90;;;;;;4970437;28;20205;-73
2022/04/03 09:30:31;;;;;;;3.37;2.37;;;5.00;79.50;;;;;;4973601;28;20208;-72
2022/04/03 09:32:59;;;;;;;2.87;2.33;;;5.00;80.50;;;;;;4969009;28;20198;-73
2022/04/03 09:35:28;;;;;;;3.60;2.40;;;4.90;80.60;;;;;;4988959;28;20199;-73
2022/04/03 09:38:06;;;;;;;2.10;1.90;;;4.90;80.90;;;;;;4973505;28;20536;-73
2022/04/03 09:40:40;;;;;;;2.73;1.93;;;5.10;81.20;;;;;;4972725;28;20214;-72
2022/04/03 09:43:16;;;;;;;2.47;2.00;;;5.00;79.80;;;;;;4988958;28;20222;-71
2022/04/03 09:45:51;;;;;;;3.63;2.33;;;4.80;78.20;;;;;;4969361;28;20217;-75
2022/04/03 09:48:26;;;;;;;2.93;2.03;;;4.80;79.10;;;;;;4972175;28;20206;-73
2022/04/03 09:50:59;;;;;;;4.07;2.10;;;5.00;79.40;;;;;;4964928;28;20221;-72
2022/04/03 09:53:27;;;;;;;3.10;2.23;;;5.00;78.00;;;;;;4969467;28;21094;-72
2022/04/03 09:55:54;;;;;;;4.93;2.40;;;5.00;77.70;;;;;;4973061;28;20226;-72
2022/04/03 09:58:28;;;;;;;4.00;2.90;;;5.10;78.10;;;;;;4967320;28;20202;-72
2022/04/03 10:00:57;;;;;;;3.33;2.17;;;5.10;77.90;;;;;;4972449;28;20206;-73
2022/04/03 10:03:24;;;;;;;3.33;2.10;;;5.20;76.10;;;;;;4965208;28;20220;-73
2022/04/03 10:05:53;;;;;;;3.23;2.03;;;5.20;76.00;;;;;;4966520;28;20230;-72
2022/04/03 10:08:25;;;;;;;3.17;1.87;;;5.20;75.50;;;;;;4969573;28;20234;-72
2022/04/03 10:10:53;;;;;;;3.23;1.80;;;5.00;74.40;;;;;;4966392;28;20203;-72
2022/04/03 10:13:25;;;;;;;2.27;1.80;;;5.10;75.50;;;;;;4969512;28;20214;-72
2022/04/03 10:15:54;;;;;;;2.80;1.87;;;5.10;74.70;;;;;;4967554;28;20601;-72
2022/04/03 10:18:23;;;;;;;2.30;1.80;;;4.90;78.10;;;;;;4983036;28;20206;-72
2022/04/03 10:21:00;;;;;;;4.27;2.13;;;5.10;81.60;;;;;;4967997;28;20199;-72
2022/04/03 10:23:30;;;;;;;3.57;2.10;;;5.20;80.10;;;;;;4972011;28;20216;-73
2022/04/03 10:25:59;;;;;;;2.80;2.03;;;5.60;80.70;;;;;;4987247;28;20229;-72
2022/04/03 10:28:27;;;;;;;3.23;2.20;;;5.50;80.00;;;;;;4983037;28;20214;-72
2022/04/03 10:31:07;;;;;;;3.13;2.13;;;5.50;81.40;;;;;;4965696;28;20217;-73
2022/04/03 10:33:58;;;;;;;2.70;1.87;;;5.80;81.00;;;;;;4977837;28;20198;-73
2022/04/03 10:36:27;;;;;;;1.63;1.50;;;6.00;81.50;;;;;;4968779;28;20235;-73
2022/04/03 10:39:00;;;;;;;3.60;1.87;;;6.10;81.80;;;;;;4967647;28;20226;-73
2022/04/03 10:41:31;;;;;;;1.80;1.23;;;6.20;81.00;;;;;;4972436;28;20195;-72
2022/04/03 10:44:24;;;;;;;2.83;1.40;;;5.90;81.10;;;;;;4970952;28;20257;-73
2022/04/03 10:47:22;;;;;;;8.50;2.13;;;6.10;83.50;;;;;;4971535;28;20228;-73
2022/04/03 10:50:05;;;;;;;2.73;1.90;;;6.60;82.80;;;;;;4957335;28;20211;-73
2022/04/03 10:53:05;;;;;;;2.80;2.07;;;6.90;81.10;;;;;;4988058;28;20199;-74
2022/04/03 10:55:36;;;;;;;2.57;1.83;;;6.90;78.50;;;;;;4971380;28;20669;-72
2022/04/03 10:58:06;;;;;;;4.33;1.80;;;6.80;81.00;;;;;;4965364;28;20200;-73
2022/04/03 11:00:39;;;;;;;2.53;1.80;;;6.80;80.60;;;;;;4966542;28;20196;-74
2022/04/03 11:03:37;;;;;;;2.20;1.60;;;6.80;84.70;;;;;;4965999;28;20220;-74
2022/04/03 11:06:29;;;;;;;3.43;1.57;;;7.40;82.90;;;;;;4972412;28;20231;-74
2022/04/03 11:09:23;;;;;;;2.50;2.03;;;7.40;82.40;;;;;;4954477;28;20201;-73
2022/04/03 11:12:00;;;;;;;2.23;1.67;;;7.80;81.80;;;;;;4965242;28;20205;-74
2022/04/03 11:14:56;;;;;;;1.63;1.47;;;7.50;82.80;;;;;;4969764;28;20192;-74
2022/04/03 11:17:47;;;;;;;2.50;1.77;;;7.60;82.70;;;;;;4970272;28;20224;-74
2022/04/03 11:20:34;;;;;;;1.57;1.40;;;8.10;81.90;;;;;;4972666;28;20208;-74
2022/04/03 11:23:05;;;;;;;2.60;1.53;;;7.90;81.20;;;;;;4965274;28;20625;-74
2022/04/03 11:25:58;;;;;;;4.13;2.30;;;8.10;80.00;;;;;;4972844;28;20197;-74
2022/04/03 11:28:27;;;;;;;4.83;2.07;;;8.20;80.20;;;;;;4981506;28;20205;-73
2022/04/03 11:30:54;;;;;;;2.00;1.80;;;8.30;80.10;;;;;;4969143;28;20197;-73
2022/04/03 11:33:22;;;;;;;2.47;1.67;;;8.10;78.30;;;;;;4972142;28;20208;-73
2022/04/03 11:35:50;;;;;;;2.73;1.80;;;8.10;77.90;;;;;;4986028;28;20203;-73
2022/04/03 11:38:20;;;;;;;2.97;2.40;;;8.10;77.00;;;;;;4968885;28;20212;-74
2022/04/03 11:40:48;;;;;;;2.63;2.40;;;8.10;78.20;;;;;;4971820;28;20200;-74
2022/04/03 11:43:16;;;;;;;3.53;2.30;;;7.80;78.90;;;;;;4987149;28;20699;-74
2022/04/03 11:45:55;;;;;;;3.00;2.17;;;8.10;79.20;;;;;;4983663;28;20232;-74
2022/04/03 11:48:24;;;;;;;3.73;2.47;;;8.10;77.90;;;;;;4957803;28;20236;-73
2022/04/03 11:51:05;;;;;;;2.77;2.53;;;8.10;78.10;;;;;;4970472;28;20204;-73
2022/04/03 11:53:34;;;;;;;3.53;2.90;;;8.30;76.10;;;;;;4972018;28;20212;-73
2022/04/03 11:56:09;;;;;;;2.97;2.63;;;8.00;77.70;;;;;;4966945;28;20277;-74
2022/04/03 11:58:41;;;;;;;2.40;2.20;;;8.20;82.20;;;;;;4968166;28;20205;-72
2022/04/03 12:01:25;;;;;;;3.30;2.63;;;8.70;81.00;;;;;;4969098;28;20210;-73
2022/04/03 12:03:59;;;;;;;2.80;2.60;;;8.40;81.70;;;;;;4965018;28;20205;-73
2022/04/03 12:06:27;;;;;;;3.13;2.53;;;9.00;79.70;;;;;;4967894;28;20235;-73
2022/04/03 12:08:56;;;;;;;2.10;2.00;;;9.10;77.30;;;;;;4976994;28;20668;-73
2022/04/03 12:11:25;;;;;;;2.60;2.40;;;8.50;77.70;;;;;;4958414;28;20189;-73
2022/04/03 12:13:54;;;;;;;2.70;2.00;;;8.20;75.60;;;;;;4970648;28;20197;-74
2022/04/03 12:16:24;;;;;;;2.97;2.00;;;8.40;77.30;;;;;;4969757;28;20228;-74
2022/04/03 12:18:56;;;;;;;3.50;2.40;;;8.70;77.20;;;;;;4959920;28;20202;-73
2022/04/03 12:21:36;;;;;;;2.10;1.90;;;8.80;77.70;;;;;;4985162;28;20205;-73
2022/04/03 12:24:31;;;;;;;2.43;2.13;;;8.80;76.60;;;;;;4972264;28;20564;-74
2022/04/03 12:27:01;;;;;;;2.57;2.23;;;8.70;76.90;;;;;;4972814;28;20224;-73
2022/04/03 12:29:30;;;;;;;3.57;2.73;;;8.30;76.50;;;;;;4966865;28;20196;-73
2022/04/03 12:32:03;;;;;;;2.50;2.30;;;8.10;76.70;;;;;;4971639;28;20196;-73
2022/04/03 12:34:33;;;;;;;3.00;2.70;;;8.30;76.60;;;;;;4970009;28;20201;-73
2022/04/03 12:37:02;;;;;;;2.60;2.40;;;8.50;75.50;;;;;;4969830;28;20235;-72
2022/04/03 12:40:07;;;;;;;4.53;2.20;;;8.50;75.40;;;;;;4990142;28;20197;-74
2022/04/03 12:43:07;;;;;;;3.43;2.20;;;8.40;74.50;;;;;;4968990;28;20205;-73
2022/04/03 12:45:35;;;;;;;2.50;1.90;;;8.40;75.30;;;;;;4969884;28;20559;-73
2022/04/03 12:48:04;;;;;;;3.20;2.27;;;8.00;75.80;;;;;;4958037;28;20206;-73
2022/04/03 12:50:58;;;;;;;5.10;2.23;;;7.60;76.90;;;;;;4991921;28;20209;-74
2022/04/03 12:53:26;;;;;;;2.47;2.27;;;7.50;78.80;;;;;;4972730;28;20205;-73
2022/04/03 12:55:56;;;;;;;3.90;2.60;;;7.70;79.50;;;;;;4986934;28;20220;-74
2022/04/03 12:58:27;;;;;;;4.43;2.23;;;7.60;80.80;;;;;;4991844;28;20207;-73
2022/04/03 13:01:09;;;;;;;4.37;2.03;;;7.50;81.40;;;;;;4973912;28;20201;-75
2022/04/03 13:03:42;;;;;;;2.20;1.70;;;7.50;83.90;;;;;;4987522;28;20251;-74
2022/04/03 13:06:11;;;;;;;2.20;1.77;;;7.30;82.80;;;;;;4971132;28;20687;-73
2022/04/03 13:09:04;;;;;;;3.20;2.27;;;7.10;83.10;;;;;;4969175;28;20200;-74
2022/04/03 13:11:43;;;;;;;2.03;1.43;;;7.20;83.80;;;;;;4980149;28;20211;-73
2022/04/03 13:14:18;;;;;;;1.77;1.60;;;7.40;84.20;;;;;;4970049;28;20197;-73
2022/04/03 13:16:46;;;;;;;2.30;2.10;;;7.50;83.90;;;;;;4970275;28;20557;-75